sensor_id;sensor_type;location;lat;lon;timestamp;pressure;altitude;pressure_sealevel;temperature;humidity
30614;BME280;17381;51.690;5.270;2022-07-29T00:00:49;101714.38;;;19.64;48.54
30614;BME280;17381;51.690;5.270;2022-07-29T00:03:42;101698.53;;;19.61;48.53
30614;BME280;17381;51.690;5.270;2022-07-29T00:06:45;101713.16;;;19.71;48.86
30614;BME280;17381;51.690;5.270;2022-07-29T00:09:42;101709.81;;;19.66;48.90
30614;BME280;17381;51.690;5.270;2022-07-29T00:12:50;101708.28;;;19.62;49.21
30614;BME280;17381;51.690;5.270;2022-07-29T00:15:45;101705.59;;;19.62;49.35
30614;BME280;17381;51.690;5.270;2022-07-29T00:18:39;101683.06;;;19.50;49.16
30614;BME280;17381;51.690;5.270;2022-07-29T00:21:41;101691.91;;;19.51;49.14
30614;BME280;17381;51.690;5.270;2022-07-29T00:24:34;101691.75;;;19.54;49.33
30614;BME280;17381;51.690;5.270;2022-07-29T00:27:38;101691.22;;;19.47;49.50
30614;BME280;17381;51.690;5.270;2022-07-29T00:30:33;101691.28;;;19.46;49.27
30614;BME280;17381;51.690;5.270;2022-07-29T00:33:32;101686.03;;;19.44;49.50
30614;BME280;17381;51.690;5.270;2022-07-29T00:36:32;101666.22;;;19.31;49.56
30614;BME280;17381;51.690;5.270;2022-07-29T00:39:20;101694.09;;;19.43;49.57
30614;BME280;17381;51.690;5.270;2022-07-29T00:42:17;101695.75;;;19.45;49.84
30614;BME280;17381;51.690;5.270;2022-07-29T00:45:13;101673.00;;;19.38;49.61
30614;BME280;17381;51.690;5.270;2022-07-29T00:48:10;101691.91;;;19.51;49.59
30614;BME280;17381;51.690;5.270;2022-07-29T00:51:06;101688.47;;;19.49;49.42
30614;BME280;17381;51.690;5.270;2022-07-29T00:53:58;101658.09;;;19.34;49.62
30614;BME280;17381;51.690;5.270;2022-07-29T00:56:52;101680.34;;;19.52;49.60
30614;BME280;17381;51.690;5.270;2022-07-29T00:59:47;101626.06;;;19.16;49.48
30614;BME280;17381;51.690;5.270;2022-07-29T01:02:41;101651.50;;;19.24;49.62
30614;BME280;17381;51.690;5.270;2022-07-29T01:05:38;101685.16;;;19.44;49.48
30614;BME280;17381;51.690;5.270;2022-07-29T01:08:37;101681.63;;;19.43;49.73
30614;BME280;17381;51.690;5.270;2022-07-29T01:11:32;101694.91;;;19.45;49.72
30614;BME280;17381;51.690;5.270;2022-07-29T01:14:35;101680.19;;;19.36;49.92
30614;BME280;17381;51.690;5.270;2022-07-29T01:17:42;101691.28;;;19.46;50.01
30614;BME280;17381;51.690;5.270;2022-07-29T01:21:21;101688.72;;;19.44;49.85
30614;BME280;17381;51.690;5.270;2022-07-29T01:28:06;101684.03;;;19.30;50.02
30614;BME280;17381;51.690;5.270;2022-07-29T01:31:00;101638.44;;;19.00;50.16
30614;BME280;17381;51.690;5.270;2022-07-29T01:33:58;101678.94;;;19.26;50.15
30614;BME280;17381;51.690;5.270;2022-07-29T01:40:34;101611.66;;;18.84;50.52
30614;BME280;17381;51.690;5.270;2022-07-29T01:43:29;101663.75;;;19.09;50.72
30614;BME280;17381;51.690;5.270;2022-07-29T01:46:38;101651.03;;;18.96;50.74
30614;BME280;17381;51.690;5.270;2022-07-29T01:49:41;101649.16;;;18.99;51.06
30614;BME280;17381;51.690;5.270;2022-07-29T01:52:43;101655.44;;;18.98;51.13
30614;BME280;17381;51.690;5.270;2022-07-29T01:55:42;101632.94;;;18.84;51.23
30614;BME280;17381;51.690;5.270;2022-07-29T01:58:55;101653.19;;;18.88;51.16
30614;BME280;17381;51.690;5.270;2022-07-29T02:01:59;101586.31;;;18.57;51.33
30614;BME280;17381;51.690;5.270;2022-07-29T02:04:59;101625.06;;;18.83;51.45
30614;BME280;17381;51.690;5.270;2022-07-29T02:07:56;101625.59;;;18.89;51.27
30614;BME280;17381;51.690;5.270;2022-07-29T02:11:06;101626.63;;;18.87;51.81
30614;BME280;17381;51.690;5.270;2022-07-29T02:14:01;101625.75;;;18.86;51.87
30614;BME280;17381;51.690;5.270;2022-07-29T02:16:56;101615.41;;;18.80;51.93
30614;BME280;17381;51.690;5.270;2022-07-29T02:19:51;101614.63;;;18.78;52.09
30614;BME280;17381;51.690;5.270;2022-07-29T02:22:42;101628.97;;;18.74;52.06
30614;BME280;17381;51.690;5.270;2022-07-29T02:25:55;101616.97;;;18.65;52.34
30614;BME280;17381;51.690;5.270;2022-07-29T02:28:48;101627.81;;;18.61;52.27
30614;BME280;17381;51.690;5.270;2022-07-29T02:31:44;101620.94;;;18.57;52.27
30614;BME280;17381;51.690;5.270;2022-07-29T02:34:45;101627.81;;;18.61;52.69
30614;BME280;17381;51.690;5.270;2022-07-29T02:37:51;101627.75;;;18.62;52.51
30614;BME280;17381;51.690;5.270;2022-07-29T02:41:30;101531.31;;;17.99;52.85
30614;BME280;17381;51.690;5.270;2022-07-29T02:44:23;101636.81;;;18.58;52.67
30614;BME280;17381;51.690;5.270;2022-07-29T02:47:39;101629.78;;;18.57;52.81
30614;BME280;17381;51.690;5.270;2022-07-29T02:50:45;101634.25;;;18.57;52.83
30614;BME280;17381;51.690;5.270;2022-07-29T02:53:42;101622.84;;;18.53;53.10
30614;BME280;17381;51.690;5.270;2022-07-29T02:56:44;101613.34;;;18.47;53.02
30614;BME280;17381;51.690;5.270;2022-07-29T02:59:40;101625.59;;;18.51;52.96
30614;BME280;17381;51.690;5.270;2022-07-29T03:03:02;101533.63;;;17.87;53.11
30614;BME280;17381;51.690;5.270;2022-07-29T03:05:58;101624.09;;;18.46;53.24
30614;BME280;17381;51.690;5.270;2022-07-29T03:08:53;101627.63;;;18.46;53.20
30614;BME280;17381;51.690;5.270;2022-07-29T03:11:46;101626.75;;;18.46;53.23
30614;BME280;17381;51.690;5.270;2022-07-29T03:14:39;101625.00;;;18.45;53.24
30614;BME280;17381;51.690;5.270;2022-07-29T03:17:34;101623.28;;;18.44;53.28
30614;BME280;17381;51.690;5.270;2022-07-29T03:20:27;101595.22;;;18.18;53.49
30614;BME280;17381;51.690;5.270;2022-07-29T03:23:23;101632.44;;;18.38;53.42
30614;BME280;17381;51.690;5.270;2022-07-29T03:26:20;101567.69;;;17.98;53.49
30614;BME280;17381;51.690;5.270;2022-07-29T03:29:13;101628.16;;;18.34;53.72
30614;BME280;17381;51.690;5.270;2022-07-29T03:32:09;101634.66;;;18.28;53.82
30614;BME280;17381;51.690;5.270;2022-07-29T03:35:02;101622.59;;;18.20;53.94
30614;BME280;17381;51.690;5.270;2022-07-29T03:37:56;101625.34;;;18.18;54.14
30614;BME280;17381;51.690;5.270;2022-07-29T03:40:52;101628.88;;;18.19;53.98
30614;BME280;17381;51.690;5.270;2022-07-29T03:43:48;101636.91;;;18.17;54.21
30614;BME280;17381;51.690;5.270;2022-07-29T03:46:43;101633.47;;;18.15;54.23
30614;BME280;17381;51.690;5.270;2022-07-29T03:49:38;101637.13;;;18.13;54.30
30614;BME280;17381;51.690;5.270;2022-07-29T03:52:26;101624.09;;;18.06;54.45
30614;BME280;17381;51.690;5.270;2022-07-29T03:55:23;101573.88;;;17.78;54.87
30614;BME280;17381;51.690;5.270;2022-07-29T03:58:18;101598.25;;;17.90;54.85
30614;BME280;17381;51.690;5.270;2022-07-29T04:01:16;101607.13;;;17.88;55.22
30614;BME280;17381;51.690;5.270;2022-07-29T04:03:55;101620.59;;;17.85;55.22
30614;BME280;17381;51.690;5.270;2022-07-29T04:06:54;101561.13;;;17.46;55.20
30614;BME280;17381;51.690;5.270;2022-07-29T04:09:50;101625.28;;;17.79;55.30
30614;BME280;17381;51.690;5.270;2022-07-29T04:12:46;101627.84;;;17.82;55.50
30614;BME280;17381;51.690;5.270;2022-07-29T04:15:39;101625.09;;;17.83;55.24
30614;BME280;17381;51.690;5.270;2022-07-29T04:18:36;101623.44;;;17.81;55.68
30614;BME280;17381;51.690;5.270;2022-07-29T04:21:33;101621.97;;;17.74;55.52
30614;BME280;17381;51.690;5.270;2022-07-29T04:24:30;101609.84;;;17.66;55.71
30614;BME280;17381;51.690;5.270;2022-07-29T04:27:28;101628.28;;;17.71;55.73
30614;BME280;17381;51.690;5.270;2022-07-29T04:30:43;101640.69;;;17.71;56.06
30614;BME280;17381;51.690;5.270;2022-07-29T04:33:30;101638.44;;;17.61;55.95
30614;BME280;17381;51.690;5.270;2022-07-29T04:36:23;101644.56;;;17.63;56.02
30614;BME280;17381;51.690;5.270;2022-07-29T04:39:22;101586.56;;;17.31;55.90
30614;BME280;17381;51.690;5.270;2022-07-29T04:42:15;101643.47;;;17.67;55.95
30614;BME280;17381;51.690;5.270;2022-07-29T04:45:03;101631.38;;;17.60;55.74
30614;BME280;17381;51.690;5.270;2022-07-29T04:47:56;101630.50;;;17.60;56.05
30614;BME280;17381;51.690;5.270;2022-07-29T04:51:05;101630.31;;;17.64;56.03
30614;BME280;17381;51.690;5.270;2022-07-29T04:53:58;101642.56;;;17.69;56.33
30614;BME280;17381;51.690;5.270;2022-07-29T04:56:51;101635.38;;;17.71;55.98
30614;BME280;17381;51.690;5.270;2022-07-29T10:20:41;101694.41;;;25.22;44.62
30614;BME280;17381;51.690;5.270;2022-07-29T10:23:46;101684.91;;;25.29;44.23
30614;BME280;17381;51.690;5.270;2022-07-29T10:30:47;101692.72;;;25.80;44.50
30614;BME280;17381;51.690;5.270;2022-07-29T10:33:46;101690.34;;;25.88;42.22
30614;BME280;17381;51.690;5.270;2022-07-29T11:41:19;101674.97;;;28.52;38.75
30614;BME280;17381;51.690;5.270;2022-07-29T17:07:30;101663.22;;;29.42;33.63
30614;BME280;17381;51.690;5.270;2022-07-29T17:10:31;101665.22;;;29.20;33.61
30614;BME280;17381;51.690;5.270;2022-07-29T17:13:39;101657.50;;;29.06;34.34
30614;BME280;17381;51.690;5.270;2022-07-29T17:20:25;101662.63;;;28.59;34.71
30614;BME280;17381;51.690;5.270;2022-07-29T17:23:34;101666.19;;;28.38;34.64
30614;BME280;17381;51.690;5.270;2022-07-29T17:26:42;101671.72;;;28.27;35.19
30614;BME280;17381;51.690;5.270;2022-07-29T17:30:05;101675.94;;;28.20;35.32
30614;BME280;17381;51.690;5.270;2022-07-29T17:33:25;101665.47;;;28.05;35.42
30614;BME280;17381;51.690;5.270;2022-07-29T17:40:56;101684.38;;;27.84;35.65
30614;BME280;17381;51.690;5.270;2022-07-29T17:43:30;101680.88;;;27.73;36.40
30614;BME280;17381;51.690;5.270;2022-07-29T17:46:27;101613.94;;;27.23;36.16
30614;BME280;17381;51.690;5.270;2022-07-29T17:50:01;101679.47;;;27.57;36.35
30614;BME280;17381;51.690;5.270;2022-07-29T17:56:30;101688.88;;;27.31;36.79
30614;BME280;17381;51.690;5.270;2022-07-29T17:59:43;101685.22;;;27.21;37.10
30614;BME280;17381;51.690;5.270;2022-07-29T18:13:05;101694.97;;;26.89;37.67
30614;BME280;17381;51.690;5.270;2022-07-29T18:20:01;101697.31;;;26.71;37.88
30614;BME280;17381;51.690;5.270;2022-07-29T18:23:24;101668.47;;;26.38;37.74
30614;BME280;17381;51.690;5.270;2022-07-29T18:26:43;101712.16;;;26.54;37.59
30614;BME280;17381;51.690;5.270;2022-07-29T18:30:00;101709.41;;;26.43;37.77
30614;BME280;17381;51.690;5.270;2022-07-29T18:33:22;101709.31;;;26.33;37.95
30614;BME280;17381;51.690;5.270;2022-07-29T18:36:31;101722.41;;;26.27;37.90
30614;BME280;17381;51.690;5.270;2022-07-29T18:39:35;101714.91;;;26.19;37.99
30614;BME280;17381;51.690;5.270;2022-07-29T18:42:24;101710.47;;;26.07;38.00
30614;BME280;17381;51.690;5.270;2022-07-29T18:45:02;101694.75;;;25.89;37.93
30614;BME280;17381;51.690;5.270;2022-07-29T18:47:55;101704.44;;;25.92;38.25
30614;BME280;17381;51.690;5.270;2022-07-29T18:51:03;101712.88;;;25.87;38.43
30614;BME280;17381;51.690;5.270;2022-07-29T18:54:23;101710.75;;;25.80;38.81
30614;BME280;17381;51.690;5.270;2022-07-29T19:00:58;101708.09;;;25.56;39.11
30614;BME280;17381;51.690;5.270;2022-07-29T19:03:45;101718.63;;;25.59;39.40
30614;BME280;17381;51.690;5.270;2022-07-29T19:06:54;101721.41;;;25.57;39.49
30614;BME280;17381;51.690;5.270;2022-07-29T19:10:19;101729.31;;;25.48;39.69
30614;BME280;17381;51.690;5.270;2022-07-29T19:16:47;101736.19;;;25.28;40.02
30614;BME280;17381;51.690;5.270;2022-07-29T20:24:53;101805.88;;;23.61;44.21
30614;BME280;17381;51.690;5.270;2022-07-29T21:50:21;101829.13;;;22.32;50.71
30614;BME280;17381;51.690;5.270;2022-07-29T21:57:31;101829.31;;;22.13;51.25
30614;BME280;17381;51.690;5.270;2022-07-29T22:15:40;101826.34;;;21.71;52.66
30614;BME280;17381;51.690;5.270;2022-07-29T22:19:05;101824.25;;;21.61;53.06
30614;BME280;17381;51.690;5.270;2022-07-29T22:22:40;101827.72;;;21.47;53.80
30614;BME280;17381;51.690;5.270;2022-07-29T22:48:49;101830.66;;;21.09;55.75
30614;BME280;17381;51.690;5.270;2022-07-29T22:51:43;101843.16;;;21.08;55.92
30614;BME280;17381;51.690;5.270;2022-07-29T22:55:30;101841.44;;;21.07;56.33
30614;BME280;17381;51.690;5.270;2022-07-29T22:58:39;101841.69;;;21.03;56.49
30614;BME280;17381;51.690;5.270;2022-07-29T23:01:38;101846.06;;;21.04;56.52
30614;BME280;17381;51.690;5.270;2022-07-29T23:04:37;101849.63;;;21.04;56.55
30614;BME280;17381;51.690;5.270;2022-07-29T23:07:33;101847.91;;;21.03;56.92
30614;BME280;17381;51.690;5.270;2022-07-29T23:10:29;101852.47;;;21.01;56.83
30614;BME280;17381;51.690;5.270;2022-07-29T23:13:13;101856.88;;;21.02;56.86
30614;BME280;17381;51.690;5.270;2022-07-29T23:16:09;101806.47;;;20.61;57.23
30614;BME280;17381;51.690;5.270;2022-07-29T23:19:05;101866.50;;;20.89;57.11
30614;BME280;17381;51.690;5.270;2022-07-29T23:22:07;101852.69;;;20.81;57.29
30614;BME280;17381;51.690;5.270;2022-07-29T23:25:06;101849.28;;;20.77;57.50
30614;BME280;17381;51.690;5.270;2022-07-29T23:28:03;101856.59;;;20.74;57.74
30614;BME280;17381;51.690;5.270;2022-07-29T23:30:56;101853.16;;;20.72;57.89
30614;BME280;17381;51.690;5.270;2022-07-29T23:37:02;101850.00;;;20.63;58.00
30614;BME280;17381;51.690;5.270;2022-07-29T23:39:59;101859.06;;;20.61;58.17
30614;BME280;17381;51.690;5.270;2022-07-29T23:43:54;101853.16;;;20.54;58.26
30614;BME280;17381;51.690;5.270;2022-07-29T23:46:36;101856.13;;;20.48;58.39
30614;BME280;17381;51.690;5.270;2022-07-29T23:49:52;101857.28;;;20.42;58.66
30614;BME280;17381;51.690;5.270;2022-07-29T23:53:02;101851.22;;;20.39;58.61
30614;BME280;17381;51.690;5.270;2022-07-29T23:55:56;101815.78;;;20.18;58.49
30614;BME280;17381;51.690;5.270;2022-07-29T23:58:58;101848.81;;;20.34;58.70
